sensor_id;sensor_type;location;lat;lon;timestamp;pressure;altitude;pressure_sealevel;temperature;humidity
5814;BME280;2933;52.302;8.134;2023-03-19T00:00:25;100118.44;;;7.14;100.00
5814;BME280;2933;52.302;8.134;2023-03-19T00:05:28;100114.28;;;6.93;100.00
5814;BME280;2933;52.302;8.134;2023-03-19T00:10:30;100114.00;;;6.82;100.00
5814;BME280;2933;52.302;8.134;2023-03-19T00:15:32;100117.13;;;6.71;100.00
5814;BME280;2933;52.302;8.134;2023-03-19T00:20:35;100119.06;;;6.68;100.00
5814;BME280;2933;52.302;8.134;2023-03-19T00:25:36;100121.28;;;6.58;100.00
5814;BME280;2933;52.302;8.134;2023-03-19T00:30:38;100124.94;;;6.54;100.00
5814;BME280;2933;52.302;8.134;2023-03-19T00:35:41;100120.19;;;6.79;100.00
5814;BME280;2933;52.302;8.134;2023-03-19T00:40:42;100123.72;;;6.43;100.00
5814;BME280;2933;52.302;8.134;2023-03-19T00:45:44;100119.59;;;6.39;100.00
5814;BME280;2933;52.302;8.134;2023-03-19T00:50:47;100119.66;;;6.38;100.00
5814;BME280;2933;52.302;8.134;2023-03-19T00:55:49;100117.81;;;6.22;100.00
5814;BME280;2933;52.302;8.134;2023-03-19T01:00:51;100119.28;;;6.28;100.00
5814;BME280;2933;52.302;8.134;2023-03-19T01:05:54;100109.34;;;6.19;100.00
5814;BME280;2933;52.302;8.134;2023-03-19T01:10:56;100107.81;;;6.14;100.00
5814;BME280;2933;52.302;8.134;2023-03-19T01:15:57;100117.63;;;6.08;100.00
5814;BME280;2933;52.302;8.134;2023-03-19T01:21:00;100120.47;;;6.03;100.00
5814;BME280;2933;52.302;8.134;2023-03-19T01:26:03;100118.88;;;6.01;100.00
5814;BME280;2933;52.302;8.134;2023-03-19T01:31:06;100118.16;;;5.97;100.00
5814;BME280;2933;52.302;8.134;2023-03-19T01:36:09;100119.25;;;5.91;100.00
5814;BME280;2933;52.302;8.134;2023-03-19T01:41:11;100122.63;;;5.93;100.00
5814;BME280;2933;52.302;8.134;2023-03-19T01:46:19;100119.19;;;5.93;100.00
5814;BME280;2933;52.302;8.134;2023-03-19T01:51:27;100123.75;;;5.88;100.00
5814;BME280;2933;52.302;8.134;2023-03-19T01:56:32;100119.09;;;5.77;100.00
5814;BME280;2933;52.302;8.134;2023-03-19T02:01:37;100116.81;;;5.88;100.00
5814;BME280;2933;52.302;8.134;2023-03-19T02:06:43;100117.63;;;6.08;100.00
5814;BME280;2933;52.302;8.134;2023-03-19T02:11:45;100113.47;;;5.86;100.00
5814;BME280;2933;52.302;8.134;2023-03-19T02:16:47;100116.88;;;5.87;100.00
5814;BME280;2933;52.302;8.134;2023-03-19T02:21:50;100117.53;;;5.92;100.00
5814;BME280;2933;52.302;8.134;2023-03-19T02:26:55;100127.91;;;5.92;100.00
5814;BME280;2933;52.302;8.134;2023-03-19T02:31:57;100133.09;;;5.92;100.00
5814;BME280;2933;52.302;8.134;2023-03-19T02:37:03;100123.19;;;6.00;100.00
5814;BME280;2933;52.302;8.134;2023-03-19T02:42:08;100109.66;;;6.12;100.00
5814;BME280;2933;52.302;8.134;2023-03-19T02:47:10;100109.03;;;6.07;100.00
5814;BME280;2933;52.302;8.134;2023-03-19T02:52:12;100105.69;;;6.23;100.00
5814;BME280;2933;52.302;8.134;2023-03-19T02:57:15;100101.78;;;6.14;100.00
5814;BME280;2933;52.302;8.134;2023-03-19T03:02:16;100091.06;;;6.22;100.00
5814;BME280;2933;52.302;8.134;2023-03-19T03:07:18;100113.16;;;6.11;100.00
5814;BME280;2933;52.302;8.134;2023-03-19T03:12:21;100104.63;;;6.09;100.00
5814;BME280;2933;52.302;8.134;2023-03-19T03:17:23;100112.00;;;6.00;100.00
5814;BME280;2933;52.302;8.134;2023-03-19T03:22:24;100103.75;;;6.09;100.00
5814;BME280;2933;52.302;8.134;2023-03-19T03:27:28;100113.00;;;5.95;100.00
5814;BME280;2933;52.302;8.134;2023-03-19T03:32:29;100120.25;;;5.89;100.00
5814;BME280;2933;52.302;8.134;2023-03-19T03:37:31;100125.16;;;5.95;100.00
5814;BME280;2933;52.302;8.134;2023-03-19T03:42:34;100123.91;;;5.85;100.00
5814;BME280;2933;52.302;8.134;2023-03-19T03:47:36;100123.00;;;5.86;100.00
5814;BME280;2933;52.302;8.134;2023-03-19T03:52:39;100122.84;;;5.89;100.00
5814;BME280;2933;52.302;8.134;2023-03-19T03:57:42;100121.16;;;5.88;100.00
5814;BME280;2933;52.302;8.134;2023-03-19T04:02:44;100129.78;;;5.88;100.00
5814;BME280;2933;52.302;8.134;2023-03-19T04:07:45;100130.28;;;5.77;100.00
5814;BME280;2933;52.302;8.134;2023-03-19T04:12:48;100121.16;;;5.88;100.00
5814;BME280;2933;52.302;8.134;2023-03-19T04:17:50;100130.91;;;5.82;100.00
5814;BME280;2933;52.302;8.134;2023-03-19T04:22:51;100125.88;;;5.79;100.00
5814;BME280;2933;52.302;8.134;2023-03-19T04:27:55;100132.19;;;5.74;100.00
5814;BME280;2933;52.302;8.134;2023-03-19T04:32:57;100131.13;;;5.78;100.00
5814;BME280;2933;52.302;8.134;2023-03-19T04:37:59;100124.31;;;5.75;100.00
5814;BME280;2933;52.302;8.134;2023-03-19T04:43:01;100127.16;;;5.71;100.00
5814;BME280;2933;52.302;8.134;2023-03-19T04:48:03;100122.91;;;5.68;100.00
5814;BME280;2933;52.302;8.134;2023-03-19T04:53:06;100130.97;;;5.62;100.00
5814;BME280;2933;52.302;8.134;2023-03-19T04:58:09;100128.97;;;5.69;100.00
5814;BME280;2933;52.302;8.134;2023-03-19T05:03:11;100134.97;;;5.69;100.00
5814;BME280;2933;52.302;8.134;2023-03-19T05:08:12;100134.16;;;5.69;100.00
5814;BME280;2933;52.302;8.134;2023-03-19T05:13:15;100141.00;;;5.70;100.00
5814;BME280;2933;52.302;8.134;2023-03-19T05:18:17;100139.03;;;5.75;100.00
5814;BME280;2933;52.302;8.134;2023-03-19T05:23:18;100140.56;;;5.79;100.00
5814;BME280;2933;52.302;8.134;2023-03-19T05:28:21;100141.16;;;5.86;100.00
5814;BME280;2933;52.302;8.134;2023-03-19T05:33:23;100141.78;;;5.91;100.00
5814;BME280;2933;52.302;8.134;2023-03-19T05:38:24;100144.19;;;5.94;100.00
5814;BME280;2933;52.302;8.134;2023-03-19T05:43:27;100148.09;;;6.04;100.00
5814;BME280;2933;52.302;8.134;2023-03-19T05:48:29;100154.88;;;6.07;100.00
5814;BME280;2933;52.302;8.134;2023-03-19T05:53:31;100158.84;;;6.14;100.00
5814;BME280;2933;52.302;8.134;2023-03-19T05:58:34;100150.72;;;6.22;100.00
5814;BME280;2933;52.302;8.134;2023-03-19T06:03:36;100155.59;;;6.28;100.00
5814;BME280;2933;52.302;8.134;2023-03-19T06:08:37;100168.00;;;6.40;100.00
5814;BME280;2933;52.302;8.134;2023-03-19T06:13:40;100159.75;;;6.50;100.00
5814;BME280;2933;52.302;8.134;2023-03-19T06:18:42;100167.38;;;6.53;100.00
5814;BME280;2933;52.302;8.134;2023-03-19T06:23:44;100162.63;;;6.61;100.00
5814;BME280;2933;52.302;8.134;2023-03-19T06:28:47;100167.59;;;6.83;100.00
5814;BME280;2933;52.302;8.134;2023-03-19T06:33:49;100169.09;;;7.05;100.00
5814;BME280;2933;52.302;8.134;2023-03-19T06:38:50;100181.41;;;7.19;100.00
5814;BME280;2933;52.302;8.134;2023-03-19T06:43:53;100175.94;;;7.23;100.00
5814;BME280;2933;52.302;8.134;2023-03-19T06:48:56;100183.38;;;7.31;100.00
5814;BME280;2933;52.302;8.134;2023-03-19T06:53:57;100187.81;;;7.45;100.00
5814;BME280;2933;52.302;8.134;2023-03-19T06:59:00;100189.94;;;7.54;100.00
5814;BME280;2933;52.302;8.134;2023-03-19T07:04:02;100202.44;;;7.64;100.00
5814;BME280;2933;52.302;8.134;2023-03-19T07:09:03;100206.47;;;7.69;100.00
5814;BME280;2933;52.302;8.134;2023-03-19T07:14:06;100215.63;;;7.76;100.00
5814;BME280;2933;52.302;8.134;2023-03-19T07:19:08;100214.38;;;7.84;100.00
5814;BME280;2933;52.302;8.134;2023-03-19T07:24:09;100224.28;;;7.93;100.00
5814;BME280;2933;52.302;8.134;2023-03-19T07:29:12;100233.19;;;8.21;100.00
5814;BME280;2933;52.302;8.134;2023-03-19T07:34:14;100234.53;;;8.44;100.00
5814;BME280;2933;52.302;8.134;2023-03-19T07:39:16;100239.03;;;8.72;100.00
5814;BME280;2933;52.302;8.134;2023-03-19T07:44:19;100229.97;;;8.94;100.00
5814;BME280;2933;52.302;8.134;2023-03-19T07:49:21;100243.44;;;9.17;100.00
5814;BME280;2933;52.302;8.134;2023-03-19T07:54:23;100242.81;;;9.28;100.00
5814;BME280;2933;52.302;8.134;2023-03-19T07:59:26;100239.25;;;9.43;100.00
5814;BME280;2933;52.302;8.134;2023-03-19T08:04:27;100255.66;;;9.60;100.00
5814;BME280;2933;52.302;8.134;2023-03-19T08:09:29;100261.16;;;9.69;100.00
5814;BME280;2933;52.302;8.134;2023-03-19T08:14:32;100265.72;;;9.66;100.00
5814;BME280;2933;52.302;8.134;2023-03-19T08:19:33;100264.59;;;9.84;100.00
5814;BME280;2933;52.302;8.134;2023-03-19T08:24:35;100262.72;;;10.01;100.00
5814;BME280;2933;52.302;8.134;2023-03-19T08:29:38;100252.25;;;10.15;100.00
5814;BME280;2933;52.302;8.134;2023-03-19T08:34:39;100266.28;;;10.42;100.00
5814;BME280;2933;52.302;8.134;2023-03-19T08:39:41;100266.94;;;10.45;100.00
5814;BME280;2933;52.302;8.134;2023-03-19T08:44:44;100262.66;;;10.30;100.00
5814;BME280;2933;52.302;8.134;2023-03-19T08:49:45;100254.84;;;10.44;100.00
5814;BME280;2933;52.302;8.134;2023-03-19T08:54:47;100265.75;;;10.64;100.00
5814;BME280;2933;52.302;8.134;2023-03-19T08:59:51;100275.28;;;10.65;100.00
5814;BME280;2933;52.302;8.134;2023-03-19T09:04:52;100276.41;;;10.88;100.00
5814;BME280;2933;52.302;8.134;2023-03-19T09:09:54;100284.63;;;11.35;100.00
5814;BME280;2933;52.302;8.134;2023-03-19T09:14:57;100288.50;;;11.29;100.00
5814;BME280;2933;52.302;8.134;2023-03-19T09:19:58;100296.34;;;11.29;100.00
5814;BME280;2933;52.302;8.134;2023-03-19T09:25:01;100296.66;;;11.38;100.00
5814;BME280;2933;52.302;8.134;2023-03-19T09:30:09;100311.72;;;11.34;100.00
5814;BME280;2933;52.302;8.134;2023-03-19T09:35:11;100309.72;;;11.25;100.00
5814;BME280;2933;52.302;8.134;2023-03-19T09:40:20;100314.97;;;11.51;100.00
5814;BME280;2933;52.302;8.134;2023-03-19T09:45:26;100319.59;;;11.60;100.00
5814;BME280;2933;52.302;8.134;2023-03-19T09:50:29;100316.97;;;11.60;100.00
5814;BME280;2933;52.302;8.134;2023-03-19T09:55:40;100334.56;;;11.58;100.00
5814;BME280;2933;52.302;8.134;2023-03-19T10:00:47;100320.41;;;11.73;100.00
5814;BME280;2933;52.302;8.134;2023-03-19T10:05:52;100332.88;;;11.83;100.00
5814;BME280;2933;52.302;8.134;2023-03-19T10:11:13;100336.53;;;11.93;100.00
5814;BME280;2933;52.302;8.134;2023-03-19T10:16:21;100323.91;;;12.50;100.00
5814;BME280;2933;52.302;8.134;2023-03-19T10:21:27;100339.25;;;12.54;100.00
5814;BME280;2933;52.302;8.134;2023-03-19T10:26:31;100338.63;;;12.26;100.00
5814;BME280;2933;52.302;8.134;2023-03-19T10:31:50;100352.53;;;12.27;100.00
5814;BME280;2933;52.302;8.134;2023-03-19T10:36:57;100349.84;;;12.16;100.00
5814;BME280;2933;52.302;8.134;2023-03-19T10:42:09;100348.19;;;12.15;100.00
5814;BME280;2933;52.302;8.134;2023-03-19T10:47:19;100354.28;;;12.02;100.00
5814;BME280;2933;52.302;8.134;2023-03-19T10:52:28;100350.34;;;11.82;100.00
5814;BME280;2933;52.302;8.134;2023-03-19T10:57:31;100350.03;;;11.87;100.00
5814;BME280;2933;52.302;8.134;2023-03-19T11:02:34;100354.44;;;11.86;100.00
5814;BME280;2933;52.302;8.134;2023-03-19T11:07:36;100370.91;;;12.14;100.00
5814;BME280;2933;52.302;8.134;2023-03-19T11:12:38;100380.94;;;12.20;100.00
5814;BME280;2933;52.302;8.134;2023-03-19T11:17:45;100373.00;;;12.09;100.00
5814;BME280;2933;52.302;8.134;2023-03-19T11:22:48;100372.88;;;12.10;100.00
5814;BME280;2933;52.302;8.134;2023-03-19T11:27:57;100367.81;;;12.46;100.00
5814;BME280;2933;52.302;8.134;2023-03-19T11:33:07;100374.19;;;12.79;100.00
5814;BME280;2933;52.302;8.134;2023-03-19T11:38:17;100375.75;;;12.82;100.00
5814;BME280;2933;52.302;8.134;2023-03-19T11:43:46;100373.13;;;12.57;100.00
5814;BME280;2933;52.302;8.134;2023-03-19T11:49:14;100375.03;;;12.42;100.00
5814;BME280;2933;52.302;8.134;2023-03-19T11:54:22;100375.38;;;12.38;100.00
5814;BME280;2933;52.302;8.134;2023-03-19T12:05:16;100380.47;;;12.52;100.00
5814;BME280;2933;52.302;8.134;2023-03-19T12:10:39;100371.31;;;12.58;100.00
5814;BME280;2933;52.302;8.134;2023-03-19T12:15:47;100382.00;;;12.68;100.00
5814;BME280;2933;52.302;8.134;2023-03-19T12:21:00;100373.63;;;13.35;100.00
5814;BME280;2933;52.302;8.134;2023-03-19T12:26:06;100371.97;;;13.81;100.00
5814;BME280;2933;52.302;8.134;2023-03-19T12:31:30;100362.06;;;13.85;100.00
5814;BME280;2933;52.302;8.134;2023-03-19T12:36:40;100364.94;;;13.93;100.00
5814;BME280;2933;52.302;8.134;2023-03-19T12:41:48;100364.59;;;14.20;100.00
5814;BME280;2933;52.302;8.134;2023-03-19T12:46:55;100363.63;;;13.87;100.00
5814;BME280;2933;52.302;8.134;2023-03-19T12:52:02;100374.91;;;13.54;100.00
5814;BME280;2933;52.302;8.134;2023-03-19T12:57:11;100365.25;;;13.54;100.00
5814;BME280;2933;52.302;8.134;2023-03-19T13:02:21;100372.91;;;13.33;100.00
5814;BME280;2933;52.302;8.134;2023-03-19T13:07:30;100370.34;;;13.20;100.00
5814;BME280;2933;52.302;8.134;2023-03-19T13:12:34;100377.56;;;13.05;100.00
5814;BME280;2933;52.302;8.134;2023-03-19T13:17:45;100379.34;;;13.05;100.00
5814;BME280;2933;52.302;8.134;2023-03-19T13:22:54;100375.53;;;13.33;100.00
5814;BME280;2933;52.302;8.134;2023-03-19T13:27:56;100370.94;;;13.24;100.00
5814;BME280;2933;52.302;8.134;2023-03-19T13:33:03;100371.69;;;13.26;100.00
5814;BME280;2933;52.302;8.134;2023-03-19T13:38:16;100368.97;;;13.03;100.00
5814;BME280;2933;52.302;8.134;2023-03-19T13:43:39;100362.38;;;12.98;100.00
5814;BME280;2933;52.302;8.134;2023-03-19T13:48:48;100368.78;;;12.93;100.00
5814;BME280;2933;52.302;8.134;2023-03-19T13:53:54;100367.13;;;12.92;100.00
5814;BME280;2933;52.302;8.134;2023-03-19T13:59:20;100362.44;;;12.85;100.00
5814;BME280;2933;52.302;8.134;2023-03-19T14:04:25;100357.19;;;12.85;100.00
5814;BME280;2933;52.302;8.134;2023-03-19T14:09:40;100360.75;;;12.84;100.00
5814;BME280;2933;52.302;8.134;2023-03-19T14:14:44;100355.19;;;12.88;100.00
5814;BME280;2933;52.302;8.134;2023-03-19T14:19:48;100350.81;;;13.00;100.00
5814;BME280;2933;52.302;8.134;2023-03-19T14:25:02;100361.22;;;13.02;100.00
5814;BME280;2933;52.302;8.134;2023-03-19T14:30:09;100356.00;;;13.13;100.00
5814;BME280;2933;52.302;8.134;2023-03-19T14:35:16;100354.06;;;13.04;100.00
5814;BME280;2933;52.302;8.134;2023-03-19T14:40:22;100364.00;;;13.12;100.00
5814;BME280;2933;52.302;8.134;2023-03-19T14:45:40;100356.06;;;13.24;100.00
5814;BME280;2933;52.302;8.134;2023-03-19T14:50:59;100364.53;;;13.28;100.00
5814;BME280;2933;52.302;8.134;2023-03-19T14:56:12;100350.97;;;13.34;100.00
5814;BME280;2933;52.302;8.134;2023-03-19T15:01:15;100365.94;;;13.45;100.00
5814;BME280;2933;52.302;8.134;2023-03-19T15:06:17;100361.06;;;13.52;100.00
5814;BME280;2933;52.302;8.134;2023-03-19T15:11:43;100367.06;;;13.65;100.00
5814;BME280;2933;52.302;8.134;2023-03-19T15:16:55;100366.78;;;13.57;100.00
5814;BME280;2933;52.302;8.134;2023-03-19T15:22:04;100372.41;;;13.64;100.00
5814;BME280;2933;52.302;8.134;2023-03-19T15:27:19;100370.22;;;13.46;99.89
5814;BME280;2933;52.302;8.134;2023-03-19T15:32:32;100376.47;;;13.32;98.48
5814;BME280;2933;52.302;8.134;2023-03-19T15:37:37;100368.44;;;13.22;99.25
5814;BME280;2933;52.302;8.134;2023-03-19T15:42:42;100386.59;;;13.25;99.03
5814;BME280;2933;52.302;8.134;2023-03-19T15:47:48;100376.31;;;13.22;94.56
5814;BME280;2933;52.302;8.134;2023-03-19T15:52:54;100381.97;;;13.29;94.48
5814;BME280;2933;52.302;8.134;2023-03-19T15:58:05;100376.34;;;13.34;91.14
5814;BME280;2933;52.302;8.134;2023-03-19T16:03:15;100393.13;;;13.20;90.58
5814;BME280;2933;52.302;8.134;2023-03-19T16:08:20;100391.88;;;13.13;92.26
5814;BME280;2933;52.302;8.134;2023-03-19T16:13:29;100398.09;;;13.12;93.16
5814;BME280;2933;52.302;8.134;2023-03-19T16:18:41;100396.75;;;13.06;95.88
5814;BME280;2933;52.302;8.134;2023-03-19T16:23:44;100400.81;;;13.10;99.17
5814;BME280;2933;52.302;8.134;2023-03-19T16:29:02;100395.41;;;13.00;98.35
5814;BME280;2933;52.302;8.134;2023-03-19T16:34:20;100404.16;;;12.88;96.13
5814;BME280;2933;52.302;8.134;2023-03-19T16:39:32;100397.47;;;12.84;95.80
5814;BME280;2933;52.302;8.134;2023-03-19T16:44:38;100409.25;;;12.78;96.15
5814;BME280;2933;52.302;8.134;2023-03-19T16:49:40;100410.38;;;12.74;96.25
5814;BME280;2933;52.302;8.134;2023-03-19T16:54:41;100418.19;;;12.63;97.57
5814;BME280;2933;52.302;8.134;2023-03-19T16:59:45;100413.69;;;12.52;98.32
5814;BME280;2933;52.302;8.134;2023-03-19T17:04:47;100413.38;;;12.56;97.55
5814;BME280;2933;52.302;8.134;2023-03-19T17:09:48;100417.16;;;12.39;99.71
5814;BME280;2933;52.302;8.134;2023-03-19T17:14:51;100428.38;;;12.41;100.00
5814;BME280;2933;52.302;8.134;2023-03-19T17:19:53;100435.22;;;12.31;100.00
5814;BME280;2933;52.302;8.134;2023-03-19T17:24:54;100432.34;;;11.95;100.00
5814;BME280;2933;52.302;8.134;2023-03-19T17:29:58;100439.44;;;11.68;100.00
5814;BME280;2933;52.302;8.134;2023-03-19T17:34:59;100437.53;;;11.57;100.00
5814;BME280;2933;52.302;8.134;2023-03-19T17:40:01;100435.72;;;11.44;100.00
5814;BME280;2933;52.302;8.134;2023-03-19T17:45:05;100443.06;;;11.25;100.00
5814;BME280;2933;52.302;8.134;2023-03-19T17:50:13;100449.22;;;10.96;100.00
5814;BME280;2933;52.302;8.134;2023-03-19T17:55:17;100446.38;;;10.72;100.00
5814;BME280;2933;52.302;8.134;2023-03-19T18:00:22;100457.97;;;10.54;100.00
5814;BME280;2933;52.302;8.134;2023-03-19T18:05:25;100465.69;;;10.55;100.00
5814;BME280;2933;52.302;8.134;2023-03-19T18:10:26;100469.19;;;10.25;100.00
5814;BME280;2933;52.302;8.134;2023-03-19T18:15:31;100479.91;;;10.21;100.00
5814;BME280;2933;52.302;8.134;2023-03-19T18:20:35;100485.78;;;10.10;100.00
5814;BME280;2933;52.302;8.134;2023-03-19T18:25:37;100495.44;;;9.93;100.00
5814;BME280;2933;52.302;8.134;2023-03-19T18:30:41;100507.88;;;9.74;100.00
5814;BME280;2933;52.302;8.134;2023-03-19T18:35:44;100502.59;;;9.59;100.00
5814;BME280;2933;52.302;8.134;2023-03-19T18:40:47;100512.31;;;9.41;100.00
5814;BME280;2933;52.302;8.134;2023-03-19T18:45:51;100512.22;;;9.27;100.00
5814;BME280;2933;52.302;8.134;2023-03-19T18:50:54;100521.13;;;9.23;100.00
5814;BME280;2933;52.302;8.134;2023-03-19T18:55:55;100529.09;;;9.03;100.00
5814;BME280;2933;52.302;8.134;2023-03-19T19:00:59;100534.16;;;9.07;100.00
5814;BME280;2933;52.302;8.134;2023-03-19T19:06:03;100535.81;;;8.92;100.00
5814;BME280;2933;52.302;8.134;2023-03-19T19:11:05;100542.13;;;9.03;100.00
5814;BME280;2933;52.302;8.134;2023-03-19T19:16:15;100555.63;;;9.44;100.00
5814;BME280;2933;52.302;8.134;2023-03-19T19:21:18;100561.97;;;9.70;100.00
5814;BME280;2933;52.302;8.134;2023-03-19T19:26:21;100576.22;;;10.11;100.00
5814;BME280;2933;52.302;8.134;2023-03-19T19:31:26;100583.41;;;10.38;100.00
5814;BME280;2933;52.302;8.134;2023-03-19T19:36:29;100594.81;;;10.51;100.00
5814;BME280;2933;52.302;8.134;2023-03-19T19:41:31;100605.22;;;10.37;100.00
5814;BME280;2933;52.302;8.134;2023-03-19T19:46:35;100617.09;;;10.26;100.00
5814;BME280;2933;52.302;8.134;2023-03-19T19:51:36;100626.31;;;10.17;100.00
5814;BME280;2933;52.302;8.134;2023-03-19T19:56:38;100627.56;;;10.10;100.00
5814;BME280;2933;52.302;8.134;2023-03-19T20:01:41;100627.25;;;10.00;100.00
5814;BME280;2933;52.302;8.134;2023-03-19T20:06:43;100632.06;;;9.92;100.00
5814;BME280;2933;52.302;8.134;2023-03-19T20:11:45;100645.63;;;9.83;100.00
5814;BME280;2933;52.302;8.134;2023-03-19T20:16:48;100644.25;;;9.76;100.00
5814;BME280;2933;52.302;8.134;2023-03-19T20:21:50;100650.91;;;9.65;100.00
5814;BME280;2933;52.302;8.134;2023-03-19T20:26:52;100663.19;;;9.47;100.00
5814;BME280;2933;52.302;8.134;2023-03-19T20:31:55;100667.13;;;9.38;100.00
5814;BME280;2933;52.302;8.134;2023-03-19T20:36:57;100679.00;;;9.44;100.00
5814;BME280;2933;52.302;8.134;2023-03-19T20:41:58;100679.31;;;9.38;100.00
5814;BME280;2933;52.302;8.134;2023-03-19T20:47:01;100689.97;;;9.33;100.00
5814;BME280;2933;52.302;8.134;2023-03-19T20:52:03;100686.81;;;9.11;100.00
5814;BME280;2933;52.302;8.134;2023-03-19T20:57:04;100687.41;;;9.16;100.00
5814;BME280;2933;52.302;8.134;2023-03-19T21:02:13;100692.81;;;9.13;100.00
5814;BME280;2933;52.302;8.134;2023-03-19T21:07:22;100685.34;;;9.05;100.00
5814;BME280;2933;52.302;8.134;2023-03-19T21:12:28;100693.81;;;9.10;100.00
5814;BME280;2933;52.302;8.134;2023-03-19T21:17:31;100698.34;;;9.07;100.00
5814;BME280;2933;52.302;8.134;2023-03-19T21:22:33;100693.84;;;9.09;100.00
5814;BME280;2933;52.302;8.134;2023-03-19T21:27:35;100690.28;;;8.94;100.00
5814;BME280;2933;52.302;8.134;2023-03-19T21:32:38;100694.75;;;8.74;100.00
5814;BME280;2933;52.302;8.134;2023-03-19T21:37:40;100687.00;;;8.55;100.00
5814;BME280;2933;52.302;8.134;2023-03-19T21:42:43;100686.81;;;8.40;100.00
5814;BME280;2933;52.302;8.134;2023-03-19T21:47:47;100681.94;;;8.33;100.00
5814;BME280;2933;52.302;8.134;2023-03-19T21:52:49;100681.09;;;8.15;100.00
5814;BME280;2933;52.302;8.134;2023-03-19T21:57:53;100684.81;;;8.09;100.00
5814;BME280;2933;52.302;8.134;2023-03-19T22:02:57;100688.50;;;7.86;100.00
5814;BME280;2933;52.302;8.134;2023-03-19T22:07:59;100700.59;;;7.68;100.00
5814;BME280;2933;52.302;8.134;2023-03-19T22:13:01;100692.16;;;7.63;100.00
5814;BME280;2933;52.302;8.134;2023-03-19T22:18:06;100697.34;;;7.43;100.00
5814;BME280;2933;52.302;8.134;2023-03-19T22:23:08;100700.13;;;7.39;100.00
5814;BME280;2933;52.302;8.134;2023-03-19T22:28:15;100701.72;;;7.02;100.00
5814;BME280;2933;52.302;8.134;2023-03-19T22:33:21;100712.38;;;6.95;100.00
5814;BME280;2933;52.302;8.134;2023-03-19T22:38:23;100696.66;;;6.78;100.00
5814;BME280;2933;52.302;8.134;2023-03-19T22:43:27;100712.31;;;6.76;100.00
5814;BME280;2933;52.302;8.134;2023-03-19T22:48:30;100712.03;;;6.62;100.00
5814;BME280;2933;52.302;8.134;2023-03-19T22:53:33;100719.50;;;6.47;100.00
5814;BME280;2933;52.302;8.134;2023-03-19T22:58:35;100724.38;;;6.35;100.00
5814;BME280;2933;52.302;8.134;2023-03-19T23:03:39;100721.28;;;6.25;100.00
5814;BME280;2933;52.302;8.134;2023-03-19T23:08:41;100726.38;;;6.28;100.00
5814;BME280;2933;52.302;8.134;2023-03-19T23:13:42;100720.19;;;6.08;100.00
5814;BME280;2933;52.302;8.134;2023-03-19T23:18:45;100721.31;;;6.01;100.00
5814;BME280;2933;52.302;8.134;2023-03-19T23:23:48;100719.06;;;5.92;100.00
5814;BME280;2933;52.302;8.134;2023-03-19T23:28:50;100705.59;;;5.82;100.00
5814;BME280;2933;52.302;8.134;2023-03-19T23:33:53;100707.09;;;5.88;100.00
5814;BME280;2933;52.302;8.134;2023-03-19T23:38:54;100718.06;;;5.72;100.00
5814;BME280;2933;52.302;8.134;2023-03-19T23:43:59;100721.03;;;5.61;100.00
5814;BME280;2933;52.302;8.134;2023-03-19T23:49:02;100723.91;;;5.54;100.00
5814;BME280;2933;52.302;8.134;2023-03-19T23:54:15;100728.88;;;5.60;100.00
5814;BME280;2933;52.302;8.134;2023-03-19T23:59:23;100730.34;;;5.42;100.00
